createdAt,value
2023-03-17T00:01:05.632Z,12.87
2023-03-17T00:03:41.824Z,12.82
2023-03-17T00:06:25.349Z,12.84
2023-03-17T00:08:58.263Z,12.85
2023-03-17T00:11:30.236Z,12.64
2023-03-17T00:14:03.288Z,12.89
2023-03-17T00:16:42.950Z,12.91
2023-03-17T00:19:42.592Z,12.87
2023-03-17T00:22:18.922Z,12.87
2023-03-17T00:24:51.383Z,12.84
2023-03-17T00:27:24.558Z,12.77
2023-03-17T00:29:56.712Z,12.78
2023-03-17T00:32:28.698Z,12.82
2023-03-17T00:35:00.682Z,12.78
2023-03-17T00:37:33.216Z,12.78
2023-03-17T00:40:19.028Z,12.75
2023-03-17T00:42:54.513Z,12.76
2023-03-17T00:45:29.867Z,12.77
2023-03-17T00:48:03.313Z,12.59
2023-03-17T00:50:35.249Z,12.73
2023-03-17T00:53:18.595Z,12.68
2023-03-17T00:55:50.667Z,12.64
2023-03-17T00:58:33.840Z,12.57
2023-03-17T01:01:05.897Z,12.65
2023-03-17T01:03:38.875Z,12.63
2023-03-17T01:06:14.755Z,12.49
2023-03-17T01:08:47.515Z,12.56
2023-03-17T01:11:21.600Z,12.56
2023-03-17T01:13:53.873Z,12.52
2023-03-17T01:16:26.933Z,12.45
2023-03-17T01:18:59.464Z,12.48
2023-03-17T01:21:31.963Z,12.45
2023-03-17T01:24:04.675Z,12.33
2023-03-17T01:26:36.845Z,12.39
2023-03-17T01:29:09.343Z,12.34
2023-03-17T01:31:41.360Z,12.31
2023-03-17T01:34:13.357Z,12.35
2023-03-17T01:36:45.540Z,12.31
2023-03-17T01:39:17.941Z,12.36
2023-03-17T01:41:50.027Z,12.35
2023-03-17T01:44:22.500Z,12.27
2023-03-17T01:46:54.679Z,12.34
2023-03-17T01:49:37.564Z,12.29
2023-03-17T01:52:17.374Z,12.26
2023-03-17T01:55:08.186Z,12.22
2023-03-17T01:57:53.508Z,12.18
2023-03-17T02:00:26.624Z,12.16
2023-03-17T02:02:59.081Z,12.16
2023-03-17T02:05:32.731Z,12.16
2023-03-17T02:08:12.720Z,12.14
2023-03-17T02:10:49.540Z,12.06
2023-03-17T02:13:21.999Z,12.17
2023-03-17T02:15:54.525Z,11.91
2023-03-17T02:18:26.488Z,12.15
2023-03-17T02:21:31.561Z,12.09
2023-03-17T02:24:12.257Z,12.08
2023-03-17T02:26:47.150Z,12.08
2023-03-17T02:29:22.825Z,12.04
2023-03-17T02:31:55.185Z,12.07
2023-03-17T02:34:27.409Z,12.07
2023-03-17T02:36:59.570Z,12.06
2023-03-17T02:39:32.303Z,12.06
2023-03-17T02:42:06.372Z,12.04
2023-03-17T02:44:38.919Z,12.02
2023-03-17T02:47:11.791Z,12.02
2023-03-17T02:49:44.751Z,12.02
2023-03-17T02:52:16.990Z,12.01
2023-03-17T02:54:49.260Z,11.79
2023-03-17T02:57:21.515Z,11.86
2023-03-17T02:59:53.574Z,11.95
2023-03-17T03:02:25.654Z,11.97
2023-03-17T03:04:57.665Z,11.99
2023-03-17T03:07:30.952Z,11.97
2023-03-17T03:10:04.236Z,11.90
2023-03-17T03:12:37.155Z,11.85
2023-03-17T03:15:09.827Z,11.91
2023-03-17T03:17:42.145Z,11.81
2023-03-17T03:20:14.559Z,11.85
2023-03-17T03:22:46.831Z,11.83
2023-03-17T03:25:19.177Z,11.85
2023-03-17T03:27:51.681Z,11.69
2023-03-17T03:30:23.735Z,11.82
2023-03-17T03:32:56.258Z,11.80
2023-03-17T03:35:29.733Z,11.74
2023-03-17T03:38:02.163Z,11.83
2023-03-17T03:40:37.103Z,11.88
2023-03-17T03:43:21.894Z,11.84
2023-03-17T03:45:54.919Z,11.76
2023-03-17T03:48:27.151Z,11.84
2023-03-17T03:51:01.542Z,11.83
2023-03-17T03:53:33.538Z,11.83
2023-03-17T03:56:06.428Z,11.84
2023-03-17T03:58:39.205Z,11.83
2023-03-17T04:01:11.239Z,11.80
2023-03-17T04:03:43.317Z,11.68
2023-03-17T04:06:16.269Z,11.78
2023-03-17T04:08:48.401Z,11.79
2023-03-17T04:11:20.559Z,11.54
2023-03-17T04:13:52.668Z,11.76
2023-03-17T04:16:24.883Z,11.74
2023-03-17T04:18:57.508Z,11.67
2023-03-17T04:21:29.483Z,11.70
2023-03-17T04:24:01.613Z,11.68
2023-03-17T04:26:33.682Z,11.73
2023-03-17T04:29:08.083Z,11.74
2023-03-17T04:31:40.811Z,11.48
2023-03-17T04:34:17.834Z,11.61
2023-03-17T04:36:49.943Z,11.74
2023-03-17T04:39:22.099Z,11.65
2023-03-17T04:41:54.093Z,11.66
2023-03-17T04:44:26.238Z,11.74
2023-03-17T04:46:58.509Z,11.74
2023-03-17T04:49:31.359Z,11.73
2023-03-17T04:52:03.831Z,11.72
2023-03-17T04:54:36.455Z,11.68
2023-03-17T04:57:10.040Z,11.72
2023-03-17T04:59:41.999Z,11.73
2023-03-17T05:02:14.061Z,11.72
2023-03-17T05:04:46.650Z,11.70
2023-03-17T05:07:18.908Z,11.71
2023-03-17T05:09:51.825Z,11.71
2023-03-17T05:12:23.984Z,11.70
2023-03-17T05:14:56.026Z,11.68
2023-03-17T05:17:28.025Z,11.69
2023-03-17T05:19:59.972Z,11.66
2023-03-17T05:22:32.250Z,11.62
2023-03-17T05:25:04.942Z,11.51
2023-03-17T05:27:37.716Z,11.62
2023-03-17T05:30:10.954Z,11.65
2023-03-17T05:32:43.062Z,11.67
2023-03-17T05:35:15.239Z,11.71
2023-03-17T05:37:47.282Z,11.66
2023-03-17T05:40:20.447Z,11.67
2023-03-17T05:42:53.418Z,11.62
2023-03-17T05:45:25.407Z,11.87
2023-03-17T05:47:57.958Z,11.72
2023-03-17T05:50:30.208Z,11.67
2023-03-17T05:53:03.254Z,11.72
2023-03-17T05:55:35.321Z,11.75
2023-03-17T05:58:07.896Z,11.77
2023-03-17T06:00:40.771Z,11.79
2023-03-17T06:03:12.920Z,11.78
2023-03-17T06:05:46.245Z,11.81
2023-03-17T06:08:18.411Z,11.72
2023-03-17T06:10:50.375Z,11.78
2023-03-17T06:13:23.119Z,11.75
2023-03-17T06:15:55.202Z,11.72
2023-03-17T06:18:27.222Z,11.73
2023-03-17T06:20:59.220Z,11.75
2023-03-17T06:23:31.308Z,11.73
2023-03-17T06:26:03.383Z,11.72
2023-03-17T06:28:35.764Z,11.74
2023-03-17T06:31:08.994Z,11.69
2023-03-17T06:33:41.592Z,11.76
2023-03-17T06:36:13.912Z,11.74
2023-03-17T06:38:46.319Z,11.75
2023-03-17T06:41:19.098Z,11.73
2023-03-17T06:43:52.447Z,11.74
2023-03-17T06:46:24.457Z,11.75
2023-03-17T06:48:56.450Z,11.76
2023-03-17T06:51:28.451Z,11.78
2023-03-17T06:54:00.866Z,11.82
2023-03-17T06:56:33.226Z,11.85
2023-03-17T06:59:05.637Z,11.86
2023-03-17T07:01:39.415Z,11.91
2023-03-17T07:04:11.441Z,11.91
2023-03-17T07:06:43.437Z,11.92
2023-03-17T07:09:15.693Z,11.98
2023-03-17T07:11:47.788Z,12.02
2023-03-17T07:14:20.322Z,12.04
2023-03-17T07:16:52.379Z,12.06
2023-03-17T07:19:24.422Z,12.07
2023-03-17T07:21:56.506Z,12.08
2023-03-17T07:24:28.529Z,12.21
2023-03-17T07:27:00.579Z,12.26
2023-03-17T07:29:34.058Z,12.33
2023-03-17T07:32:08.225Z,12.37
2023-03-17T07:34:40.802Z,12.41
2023-03-17T07:37:12.750Z,12.47
2023-03-17T07:39:47.235Z,12.50
2023-03-17T07:42:19.855Z,12.55
2023-03-17T07:44:51.884Z,12.59
2023-03-17T07:47:23.956Z,12.58
2023-03-17T07:49:55.913Z,12.64
2023-03-17T07:52:27.947Z,12.70
2023-03-17T07:54:59.932Z,12.73
2023-03-17T07:57:32.020Z,12.65
2023-03-17T08:00:09.651Z,12.54
2023-03-17T08:02:41.687Z,12.83
2023-03-17T08:05:14.326Z,12.82
2023-03-17T08:07:46.572Z,12.83
2023-03-17T08:10:18.648Z,12.88
2023-03-17T08:12:53.395Z,12.97
2023-03-17T08:15:25.452Z,12.95
2023-03-17T08:17:57.444Z,13.10
2023-03-17T08:20:30.080Z,13.17
2023-03-17T08:23:03.617Z,13.31
2023-03-17T08:25:35.703Z,13.39
2023-03-17T08:28:08.055Z,13.46
2023-03-17T08:30:40.657Z,13.48
2023-03-17T08:33:13.077Z,13.55
2023-03-17T08:35:45.188Z,13.59
2023-03-17T08:38:17.421Z,13.65
2023-03-17T08:40:51.042Z,13.70
2023-03-17T08:43:23.998Z,13.77
2023-03-17T08:46:12.884Z,13.82
2023-03-17T08:48:48.196Z,13.92
2023-03-17T08:51:25.288Z,13.95
2023-03-17T08:53:57.544Z,13.88
2023-03-17T08:56:29.608Z,13.73
2023-03-17T08:59:02.043Z,14.10
2023-03-17T09:01:34.896Z,14.18
2023-03-17T09:04:07.047Z,14.25
2023-03-17T09:06:44.067Z,14.25
2023-03-17T09:09:20.942Z,14.33
2023-03-17T09:11:52.917Z,14.38
2023-03-17T09:14:45.240Z,14.41
2023-03-17T09:17:18.071Z,14.48
2023-03-17T09:19:50.152Z,14.52
2023-03-17T09:22:22.105Z,14.63
2023-03-17T09:24:54.129Z,14.78
2023-03-17T09:27:26.156Z,14.73
2023-03-17T09:29:58.103Z,14.87
2023-03-17T09:32:30.393Z,14.77
2023-03-17T09:35:03.906Z,14.82
2023-03-17T09:37:35.953Z,14.75
2023-03-17T09:40:13.880Z,14.81
2023-03-17T09:43:31.875Z,14.78
2023-03-17T09:46:56.128Z,14.82
2023-03-17T09:49:52.421Z,14.90
2023-03-17T09:52:34.427Z,14.99
2023-03-17T09:55:17.193Z,15.15
2023-03-17T09:57:55.892Z,15.38
2023-03-17T10:00:29.871Z,15.47
2023-03-17T10:03:01.963Z,15.48
2023-03-17T10:05:36.996Z,15.33
2023-03-17T10:08:32.231Z,15.45
2023-03-17T10:11:28.032Z,15.48
2023-03-17T10:14:33.928Z,15.48
2023-03-17T10:17:16.520Z,15.58
2023-03-17T10:20:27.177Z,15.70
2023-03-17T10:23:06.939Z,15.91
2023-03-17T10:25:39.466Z,16.09
2023-03-17T10:28:35.926Z,16.24
2023-03-17T10:31:17.541Z,16.31
2023-03-17T10:33:54.853Z,16.38
2023-03-17T10:36:38.646Z,16.41
2023-03-17T10:39:18.716Z,16.50
2023-03-17T10:42:07.857Z,16.58
2023-03-17T10:44:52.780Z,16.77
2023-03-17T10:47:40.844Z,16.93
2023-03-17T10:50:22.110Z,17.18
2023-03-17T10:53:09.300Z,17.43
2023-03-17T10:55:49.832Z,17.67
2023-03-17T10:58:45.849Z,17.91
2023-03-17T11:01:34.093Z,18.13
2023-03-17T11:04:40.038Z,18.26
2023-03-17T11:07:27.715Z,18.36
2023-03-17T11:10:03.380Z,18.25
2023-03-17T11:12:40.918Z,18.35
2023-03-17T11:15:20.146Z,18.21
2023-03-17T11:17:59.165Z,18.40
2023-03-17T11:20:43.420Z,18.43
2023-03-17T11:23:43.232Z,18.52
2023-03-17T11:26:30.411Z,18.70
2023-03-17T11:29:33.051Z,18.93
2023-03-17T11:32:11.042Z,19.15
2023-03-17T11:35:12.532Z,19.17
2023-03-17T11:38:24.466Z,19.38
2023-03-17T11:41:25.492Z,19.61
2023-03-17T11:44:26.117Z,19.79
2023-03-17T11:47:06.876Z,19.86
2023-03-17T11:49:41.089Z,19.93
2023-03-17T11:52:26.986Z,19.91
2023-03-17T11:55:53.029Z,19.93
2023-03-17T11:58:44.357Z,19.96
2023-03-17T12:01:27.276Z,20.01
2023-03-17T12:04:18.959Z,20.12
2023-03-17T12:07:01.342Z,19.98
2023-03-17T12:09:51.827Z,20.22
2023-03-17T12:12:56.666Z,20.15
2023-03-17T12:15:47.309Z,20.04
2023-03-17T12:18:37.397Z,20.10
2023-03-17T12:21:34.053Z,20.05
2023-03-17T12:24:43.894Z,19.94
2023-03-17T12:27:51.031Z,19.84
2023-03-17T12:30:52.839Z,19.77
2023-03-17T12:33:48.823Z,19.74
2023-03-17T12:36:21.964Z,19.76
2023-03-17T12:39:05.607Z,19.74
2023-03-17T12:42:13.823Z,19.70
2023-03-17T12:45:19.258Z,19.66
2023-03-17T12:48:02.928Z,19.76
2023-03-17T12:51:06.348Z,19.65
2023-03-17T12:53:42.671Z,20.07
2023-03-17T12:56:34.557Z,20.16
2023-03-17T12:59:14.806Z,20.51
2023-03-17T13:02:27.794Z,20.38
2023-03-17T13:05:05.567Z,20.35
2023-03-17T13:07:53.941Z,20.27
2023-03-17T13:10:48.610Z,20.35
2023-03-17T13:13:45.448Z,20.43
2023-03-17T13:16:28.334Z,20.55
2023-03-17T13:19:20.250Z,20.63
2023-03-17T13:21:57.828Z,20.74
2023-03-17T13:24:48.023Z,20.77
2023-03-17T13:27:31.996Z,20.82
2023-03-17T13:30:26.983Z,20.77
2023-03-17T13:33:11.471Z,20.62
2023-03-17T13:35:46.332Z,20.59
2023-03-17T13:38:33.067Z,20.58
2023-03-17T13:41:50.364Z,20.62
2023-03-17T13:44:45.947Z,20.69
2023-03-17T13:47:24.379Z,20.68
2023-03-17T13:50:12.604Z,20.72
2023-03-17T13:52:57.585Z,20.92
2023-03-17T13:55:40.985Z,21.06
2023-03-17T13:58:13.021Z,21.21
2023-03-17T14:00:55.269Z,21.17
2023-03-17T14:03:43.906Z,21.02
2023-03-17T14:06:19.515Z,20.96
2023-03-17T14:09:16.655Z,20.95
2023-03-17T14:11:50.968Z,20.90
2023-03-17T14:14:53.220Z,20.80
2023-03-17T14:17:44.661Z,20.75
2023-03-17T14:20:16.914Z,20.66
2023-03-17T14:23:01.977Z,20.61
2023-03-17T14:25:36.207Z,20.59
2023-03-17T14:28:16.503Z,20.59
2023-03-17T14:30:58.812Z,20.57
2023-03-17T14:33:40.005Z,20.56
2023-03-17T14:36:14.604Z,20.59
2023-03-17T14:38:54.069Z,20.55
2023-03-17T14:41:28.537Z,20.51
2023-03-17T14:44:02.184Z,20.49
2023-03-17T14:46:38.884Z,20.50
2023-03-17T14:49:20.956Z,20.49
2023-03-17T14:51:53.605Z,20.46
2023-03-17T14:54:34.319Z,20.49
2023-03-17T14:57:15.725Z,20.33
2023-03-17T15:00:29.685Z,20.48
2023-03-17T15:03:15.662Z,20.37
2023-03-17T15:05:48.871Z,20.37
2023-03-17T15:08:43.410Z,20.33
2023-03-17T15:11:22.253Z,20.33
2023-03-17T15:14:30.018Z,20.25
2023-03-17T15:17:06.510Z,20.28
2023-03-17T15:19:45.391Z,20.29
2023-03-17T15:22:42.177Z,20.28
2023-03-17T15:25:29.118Z,20.29
2023-03-17T15:28:01.484Z,20.31
2023-03-17T15:30:46.310Z,20.38
2023-03-17T15:33:23.115Z,20.35
2023-03-17T15:36:00.402Z,20.36
2023-03-17T15:38:33.703Z,20.41
2023-03-17T15:41:05.938Z,20.43
2023-03-17T15:43:37.984Z,20.46
2023-03-17T15:46:23.465Z,20.43
2023-03-17T15:48:55.685Z,20.44
2023-03-17T15:51:28.012Z,20.44
2023-03-17T15:53:59.942Z,20.43
2023-03-17T15:56:31.900Z,20.40
2023-03-17T15:59:04.740Z,20.39
2023-03-17T16:01:38.815Z,20.29
2023-03-17T16:04:10.988Z,20.33
2023-03-17T16:06:43.158Z,20.31
2023-03-17T16:09:17.577Z,20.22
2023-03-17T16:11:52.195Z,20.20
2023-03-17T16:14:25.125Z,20.14
2023-03-17T16:16:57.273Z,20.10
2023-03-17T16:19:29.485Z,20.07
2023-03-17T16:22:01.693Z,20.02
2023-03-17T16:24:34.739Z,19.96
2023-03-17T16:27:15.288Z,19.92
2023-03-17T16:29:47.295Z,19.90
2023-03-17T16:32:19.473Z,19.86
2023-03-17T16:34:51.629Z,19.83
2023-03-17T16:37:23.619Z,19.79
2023-03-17T16:39:55.761Z,19.76
2023-03-17T16:42:28.347Z,19.72
2023-03-17T16:45:00.417Z,19.69
2023-03-17T16:47:32.362Z,19.62
2023-03-17T16:50:22.063Z,19.56
2023-03-17T16:52:54.736Z,19.55
2023-03-17T16:55:29.147Z,19.55
2023-03-17T16:58:14.730Z,19.42
2023-03-17T17:00:48.916Z,19.47
2023-03-17T17:03:21.109Z,19.43
2023-03-17T17:05:53.164Z,19.37
2023-03-17T17:08:25.386Z,19.26
2023-03-17T17:10:57.506Z,19.04
2023-03-17T17:13:29.439Z,19.18
2023-03-17T17:16:01.907Z,19.13
2023-03-17T17:18:36.476Z,19.10
2023-03-17T17:21:09.680Z,19.06
2023-03-17T17:23:41.777Z,19.06
2023-03-17T17:26:13.840Z,19.04
2023-03-17T17:28:45.888Z,18.97
2023-03-17T17:31:18.039Z,18.91
2023-03-17T17:33:50.126Z,18.84
2023-03-17T17:36:22.780Z,19.13
2023-03-17T17:38:54.990Z,18.85
2023-03-17T17:41:27.166Z,18.79
2023-03-17T17:43:59.126Z,18.80
2023-03-17T17:46:31.626Z,18.79
2023-03-17T17:49:03.968Z,18.73
2023-03-17T17:51:35.969Z,18.70
2023-03-17T17:54:08.066Z,18.63
2023-03-17T17:56:46.759Z,18.95
2023-03-17T17:59:18.949Z,18.65
2023-03-17T18:01:51.009Z,18.58
2023-03-17T18:04:23.320Z,18.53
2023-03-17T18:06:55.409Z,18.50
2023-03-17T18:09:27.807Z,18.50
2023-03-17T18:12:00.098Z,18.46
2023-03-17T18:14:32.184Z,18.46
2023-03-17T18:17:04.401Z,18.44
2023-03-17T18:19:36.697Z,18.39
2023-03-17T18:22:09.174Z,18.37
2023-03-17T18:24:41.192Z,18.35
2023-03-17T18:27:13.458Z,18.31
2023-03-17T18:29:47.260Z,18.21
2023-03-17T18:32:19.238Z,18.22
2023-03-17T18:34:51.691Z,18.17
2023-03-17T18:37:23.713Z,18.18
2023-03-17T18:40:12.564Z,18.19
2023-03-17T18:42:47.193Z,18.08
2023-03-17T18:45:19.715Z,18.07
2023-03-17T18:47:51.926Z,18.14
2023-03-17T18:50:23.968Z,18.07
2023-03-17T18:52:56.622Z,18.07
2023-03-17T18:55:28.617Z,17.96
2023-03-17T18:58:00.657Z,18.00
2023-03-17T19:00:33.884Z,17.99
2023-03-17T19:03:06.212Z,17.98
2023-03-17T19:05:39.511Z,17.96
2023-03-17T19:08:11.667Z,17.94
2023-03-17T19:10:44.560Z,17.87
2023-03-17T19:13:16.567Z,17.89
2023-03-17T19:15:48.578Z,17.86
2023-03-17T19:18:20.603Z,17.83
2023-03-17T19:20:53.176Z,17.80
2023-03-17T19:23:25.193Z,17.81
2023-03-17T19:25:57.173Z,17.79
2023-03-17T19:28:29.289Z,17.82
2023-03-17T19:31:01.778Z,17.80
2023-03-17T19:33:33.849Z,17.81
2023-03-17T19:36:11.380Z,17.71
2023-03-17T19:38:43.423Z,17.75
2023-03-17T19:41:15.702Z,17.71
2023-03-17T19:43:47.672Z,17.65
2023-03-17T19:46:19.737Z,17.67
2023-03-17T19:48:53.512Z,17.49
2023-03-17T19:51:27.354Z,17.68
2023-03-17T19:53:59.471Z,17.66
2023-03-17T19:56:31.949Z,17.69
2023-03-17T19:59:04.760Z,17.68
2023-03-17T20:01:38.450Z,17.69
2023-03-17T20:04:14.075Z,17.70
2023-03-17T20:06:46.873Z,17.68
2023-03-17T20:09:18.963Z,17.64
2023-03-17T20:11:52.496Z,17.64
2023-03-17T20:14:25.014Z,17.62
2023-03-17T20:16:57.008Z,17.61
2023-03-17T20:19:29.313Z,17.61
2023-03-17T20:22:01.415Z,17.58
2023-03-17T20:24:34.753Z,17.61
2023-03-17T20:27:08.065Z,17.38
2023-03-17T20:29:40.037Z,17.62
2023-03-17T20:32:14.907Z,17.61
2023-03-17T20:34:47.062Z,17.56
2023-03-17T20:37:19.933Z,17.54
2023-03-17T20:39:54.221Z,17.52
2023-03-17T20:42:26.514Z,17.45
2023-03-17T20:44:58.609Z,17.49
2023-03-17T20:47:30.947Z,17.48
2023-03-17T20:50:04.741Z,17.45
2023-03-17T20:52:37.307Z,17.36
2023-03-17T20:55:14.375Z,17.40
2023-03-17T20:57:47.577Z,17.32
2023-03-17T21:00:21.884Z,17.34
2023-03-17T21:02:54.041Z,17.32
2023-03-17T21:05:27.557Z,17.04
2023-03-17T21:07:59.581Z,17.25
2023-03-17T21:10:31.868Z,17.26
2023-03-17T21:13:05.579Z,17.27
2023-03-17T21:15:37.856Z,17.24
2023-03-17T21:18:12.630Z,17.21
2023-03-17T21:20:44.695Z,17.17
2023-03-17T21:23:17.205Z,17.22
2023-03-17T21:25:56.057Z,17.20
2023-03-17T21:28:28.030Z,17.17
2023-03-17T21:31:02.452Z,17.14
2023-03-17T21:33:34.738Z,17.14
2023-03-17T21:36:07.512Z,17.14
2023-03-17T21:38:39.576Z,17.13
2023-03-17T21:41:35.910Z,17.04
2023-03-17T21:44:08.443Z,17.09
2023-03-17T21:46:40.379Z,17.03
2023-03-17T21:49:13.425Z,17.08
2023-03-17T21:51:46.947Z,17.08
2023-03-17T21:54:19.441Z,17.05
2023-03-17T21:56:52.709Z,17.07
2023-03-17T21:59:24.976Z,17.10
2023-03-17T22:01:57.888Z,17.10
2023-03-17T22:04:30.023Z,17.06
2023-03-17T22:07:04.557Z,17.03
2023-03-17T22:09:37.678Z,16.98
2023-03-17T22:12:11.435Z,16.90
2023-03-17T22:14:43.414Z,16.93
2023-03-17T22:17:15.768Z,16.91
2023-03-17T22:19:48.791Z,16.90
2023-03-17T22:22:22.243Z,16.83
2023-03-17T22:24:55.632Z,16.86
2023-03-17T22:27:27.661Z,16.89
2023-03-17T22:29:59.679Z,16.88
2023-03-17T22:32:32.243Z,16.89
2023-03-17T22:35:04.736Z,16.89
2023-03-17T22:37:36.860Z,16.89
2023-03-17T22:40:10.237Z,16.89
2023-03-17T22:42:42.645Z,16.88
2023-03-17T22:45:15.406Z,16.85
2023-03-17T22:47:47.372Z,16.86
2023-03-17T22:50:19.440Z,16.87
2023-03-17T22:52:51.832Z,16.85
2023-03-17T22:55:23.807Z,16.84
2023-03-17T22:57:56.009Z,16.82
2023-03-17T23:00:28.103Z,16.83
2023-03-17T23:03:00.143Z,16.81
2023-03-17T23:05:32.119Z,16.81
2023-03-17T23:08:04.407Z,16.83
2023-03-17T23:10:36.454Z,16.83
2023-03-17T23:13:08.734Z,16.83
2023-03-17T23:15:40.841Z,16.77
2023-03-17T23:18:12.894Z,16.74
2023-03-17T23:20:45.858Z,16.75
2023-03-17T23:23:18.172Z,16.67
2023-03-17T23:25:50.336Z,16.72
2023-03-17T23:28:22.433Z,16.71
2023-03-17T23:30:55.276Z,16.69
2023-03-17T23:33:28.353Z,16.69
2023-03-17T23:36:00.504Z,16.67
2023-03-17T23:38:32.570Z,16.70
2023-03-17T23:41:04.792Z,16.69
2023-03-17T23:43:37.488Z,16.64
2023-03-17T23:46:10.069Z,16.56
2023-03-17T23:48:42.949Z,16.54
2023-03-17T23:51:15.657Z,16.45
2023-03-17T23:53:48.090Z,16.53
2023-03-17T23:56:20.641Z,16.56
2023-03-17T23:58:53.011Z,16.57
